sensor_id;sensor_type;location;lat;lon;timestamp;pressure;altitude;pressure_sealevel;temperature;humidity
73297;BME280;61524;50.938;11.396;2023-06-10T00:01:26;98977.47;;;15.42;84.10
73297;BME280;61524;50.938;11.396;2023-06-10T00:03:53;98960.22;;;15.43;82.29
73297;BME280;61524;50.938;11.396;2023-06-10T00:06:19;98968.22;;;15.53;82.47
73297;BME280;61524;50.938;11.396;2023-06-10T00:08:46;98961.59;;;15.40;83.04
73297;BME280;61524;50.938;11.396;2023-06-10T00:11:12;98979.28;;;15.52;82.59
73297;BME280;61524;50.938;11.396;2023-06-10T00:13:38;98973.94;;;15.46;82.20
73297;BME280;61524;50.938;11.396;2023-06-10T00:16:03;98983.69;;;15.37;82.17
73297;BME280;61524;50.938;11.396;2023-06-10T00:18:29;98970.88;;;15.24;82.66
73297;BME280;61524;50.938;11.396;2023-06-10T00:20:57;98978.34;;;15.32;82.77
73297;BME280;61524;50.938;11.396;2023-06-10T00:23:28;98981.56;;;15.34;82.69
73297;BME280;61524;50.938;11.396;2023-06-10T00:25:59;98974.56;;;15.33;82.34
73297;BME280;61524;50.938;11.396;2023-06-10T00:28:25;98986.41;;;15.32;82.11
73297;BME280;61524;50.938;11.396;2023-06-10T00:30:50;98988.94;;;15.18;82.31
73297;BME280;61524;50.938;11.396;2023-06-10T00:33:16;98989.47;;;15.15;82.43
73297;BME280;61524;50.938;11.396;2023-06-10T00:35:41;98994.41;;;14.98;83.70
73297;BME280;61524;50.938;11.396;2023-06-10T00:38:07;98990.69;;;14.89;84.25
73297;BME280;61524;50.938;11.396;2023-06-10T00:40:33;98992.63;;;14.68;85.54
73297;BME280;61524;50.938;11.396;2023-06-10T00:43:04;98995.38;;;14.53;85.71
73297;BME280;61524;50.938;11.396;2023-06-10T00:45:29;98991.06;;;14.57;85.54
73297;BME280;61524;50.938;11.396;2023-06-10T00:47:55;98996.41;;;14.67;85.53
73297;BME280;61524;50.938;11.396;2023-06-10T00:50:21;98987.84;;;14.60;85.07
73297;BME280;61524;50.938;11.396;2023-06-10T00:52:46;98979.28;;;14.48;85.44
73297;BME280;61524;50.938;11.396;2023-06-10T00:55:15;98999.13;;;14.47;85.55
73297;BME280;61524;50.938;11.396;2023-06-10T00:57:41;98988.94;;;14.54;85.65
73297;BME280;61524;50.938;11.396;2023-06-10T01:00:10;98988.66;;;14.60;85.00
73297;BME280;61524;50.938;11.396;2023-06-10T01:02:36;98985.66;;;14.62;84.58
73297;BME280;61524;50.938;11.396;2023-06-10T01:05:02;98997.97;;;14.78;83.68
73297;BME280;61524;50.938;11.396;2023-06-10T01:10:33;98985.94;;;14.65;84.14
73297;BME280;61524;50.938;11.396;2023-06-10T01:13:02;99008.56;;;14.59;83.85
73297;BME280;61524;50.938;11.396;2023-06-10T01:15:31;99005.09;;;14.49;83.86
73297;BME280;61524;50.938;11.396;2023-06-10T01:18:01;99013.13;;;14.54;83.65
73297;BME280;61524;50.938;11.396;2023-06-10T01:20:28;99008.25;;;14.61;83.85
73297;BME280;61524;50.938;11.396;2023-06-10T01:22:55;99005.84;;;14.64;83.18
73297;BME280;61524;50.938;11.396;2023-06-10T01:25:22;99005.09;;;14.33;84.30
73297;BME280;61524;50.938;11.396;2023-06-10T01:27:54;99002.88;;;14.61;83.05
73297;BME280;61524;50.938;11.396;2023-06-10T01:30:27;99009.59;;;14.63;83.55
73297;BME280;61524;50.938;11.396;2023-06-10T01:32:55;99007.75;;;14.59;83.41
73297;BME280;61524;50.938;11.396;2023-06-10T01:35:25;99012.03;;;14.44;83.91
73297;BME280;61524;50.938;11.396;2023-06-10T01:37:55;99000.78;;;14.37;84.00
73297;BME280;61524;50.938;11.396;2023-06-10T01:40:23;99005.63;;;14.30;84.38
73297;BME280;61524;50.938;11.396;2023-06-10T01:42:49;99003.22;;;14.13;84.62
73297;BME280;61524;50.938;11.396;2023-06-10T01:45:15;99000.00;;;14.27;83.86
73297;BME280;61524;50.938;11.396;2023-06-10T01:47:40;99001.34;;;14.09;84.78
73297;BME280;61524;50.938;11.396;2023-06-10T01:50:06;99003.78;;;14.10;84.58
73297;BME280;61524;50.938;11.396;2023-06-10T01:52:31;98999.75;;;13.92;84.42
73297;BME280;61524;50.938;11.396;2023-06-10T01:54:57;98998.94;;;13.92;84.87
73297;BME280;61524;50.938;11.396;2023-06-10T01:57:22;99000.81;;;13.91;84.64
73297;BME280;61524;50.938;11.396;2023-06-10T01:59:48;98995.44;;;13.97;84.86
73297;BME280;61524;50.938;11.396;2023-06-10T02:02:13;99001.34;;;14.09;83.66
73297;BME280;61524;50.938;11.396;2023-06-10T02:04:39;99006.47;;;13.95;84.87
73297;BME280;61524;50.938;11.396;2023-06-10T02:07:04;99011.56;;;13.81;84.84
73297;BME280;61524;50.938;11.396;2023-06-10T02:09:31;99015.31;;;13.75;85.19
73297;BME280;61524;50.938;11.396;2023-06-10T02:11:57;99008.06;;;13.71;86.26
73297;BME280;61524;50.938;11.396;2023-06-10T02:14:22;98998.41;;;13.64;86.00
73297;BME280;61524;50.938;11.396;2023-06-10T02:16:48;99007.25;;;13.55;85.71
73297;BME280;61524;50.938;11.396;2023-06-10T02:19:13;99020.16;;;13.63;85.77
73297;BME280;61524;50.938;11.396;2023-06-10T02:21:39;99014.22;;;13.61;85.81
73297;BME280;61524;50.938;11.396;2023-06-10T02:24:05;99004.56;;;13.55;85.95
73297;BME280;61524;50.938;11.396;2023-06-10T02:26:30;99009.13;;;13.54;85.46
73297;BME280;61524;50.938;11.396;2023-06-10T02:28:56;99021.47;;;13.40;85.92
73297;BME280;61524;50.938;11.396;2023-06-10T02:31:22;99037.00;;;13.33;86.34
73297;BME280;61524;50.938;11.396;2023-06-10T02:33:49;99016.34;;;13.38;86.41
73297;BME280;61524;50.938;11.396;2023-06-10T02:36:14;99022.25;;;13.35;85.70
73297;BME280;61524;50.938;11.396;2023-06-10T02:38:41;99021.44;;;13.35;85.58
73297;BME280;61524;50.938;11.396;2023-06-10T02:41:06;99028.44;;;13.46;85.54
73297;BME280;61524;50.938;11.396;2023-06-10T02:43:31;99022.16;;;13.15;86.45
73297;BME280;61524;50.938;11.396;2023-06-10T02:45:57;99021.63;;;13.18;86.73
73297;BME280;61524;50.938;11.396;2023-06-10T02:48:26;99016.78;;;13.10;87.27
73297;BME280;61524;50.938;11.396;2023-06-10T02:50:52;99035.84;;;13.13;86.06
73297;BME280;61524;50.938;11.396;2023-06-10T02:53:17;99034.50;;;13.16;85.61
73297;BME280;61524;50.938;11.396;2023-06-10T02:55:43;99035.03;;;13.13;86.08
73297;BME280;61524;50.938;11.396;2023-06-10T02:58:09;99027.78;;;13.08;86.55
73297;BME280;61524;50.938;11.396;2023-06-10T03:00:34;99037.16;;;13.11;86.13
73297;BME280;61524;50.938;11.396;2023-06-10T03:03:01;99032.59;;;13.06;85.80
73297;BME280;61524;50.938;11.396;2023-06-10T03:05:29;99035.50;;;13.00;86.43
73297;BME280;61524;50.938;11.396;2023-06-10T03:07:54;99033.09;;;12.98;86.38
73297;BME280;61524;50.938;11.396;2023-06-10T03:10:20;99049.94;;;12.88;86.93
73297;BME280;61524;50.938;11.396;2023-06-10T03:12:45;99028.50;;;12.88;87.62
73297;BME280;61524;50.938;11.396;2023-06-10T03:15:11;99040.84;;;12.95;86.36
73297;BME280;61524;50.938;11.396;2023-06-10T03:17:36;99033.34;;;12.92;86.69
73297;BME280;61524;50.938;11.396;2023-06-10T03:20:02;99050.47;;;12.91;86.47
73297;BME280;61524;50.938;11.396;2023-06-10T03:22:30;99038.13;;;12.84;86.83
73297;BME280;61524;50.938;11.396;2023-06-10T03:24:56;99042.16;;;12.82;86.92
73297;BME280;61524;50.938;11.396;2023-06-10T03:27:22;99030.84;;;12.80;87.78
73297;BME280;61524;50.938;11.396;2023-06-10T03:29:48;99045.59;;;12.72;86.90
73297;BME280;61524;50.938;11.396;2023-06-10T03:32:13;99045.63;;;12.82;87.32
73297;BME280;61524;50.938;11.396;2023-06-10T03:34:40;99040.25;;;12.77;87.25
73297;BME280;61524;50.938;11.396;2023-06-10T03:37:05;99048.34;;;12.87;86.73
73297;BME280;61524;50.938;11.396;2023-06-10T03:39:32;99053.69;;;12.82;87.21
73297;BME280;61524;50.938;11.396;2023-06-10T03:41:57;99045.34;;;12.79;87.16
73297;BME280;61524;50.938;11.396;2023-06-10T03:44:24;99058.78;;;12.84;87.12
73297;BME280;61524;50.938;11.396;2023-06-10T03:46:51;99060.69;;;12.88;87.00
73297;BME280;61524;50.938;11.396;2023-06-10T03:49:17;99052.13;;;12.97;86.95
73297;BME280;61524;50.938;11.396;2023-06-10T03:51:42;99056.19;;;13.04;86.77
73297;BME280;61524;50.938;11.396;2023-06-10T03:54:08;99041.97;;;13.04;86.38
73297;BME280;61524;50.938;11.396;2023-06-10T03:56:34;99037.13;;;13.01;85.87
73297;BME280;61524;50.938;11.396;2023-06-10T03:59:00;99059.03;;;13.55;84.88
73297;BME280;61524;50.938;11.396;2023-06-10T04:01:25;99064.22;;;14.18;82.16
73297;BME280;61524;50.938;11.396;2023-06-10T04:03:51;99061.41;;;14.89;79.53
73297;BME280;61524;50.938;11.396;2023-06-10T04:06:19;99058.94;;;15.13;78.89
73297;BME280;61524;50.938;11.396;2023-06-10T04:08:44;99074.09;;;15.48;77.89
73297;BME280;61524;50.938;11.396;2023-06-10T04:11:10;99072.09;;;15.74;76.31
73297;BME280;61524;50.938;11.396;2023-06-10T04:13:35;99086.13;;;16.11;75.35
73297;BME280;61524;50.938;11.396;2023-06-10T04:16:02;99088.06;;;16.34;75.26
73297;BME280;61524;50.938;11.396;2023-06-10T04:18:27;99081.84;;;16.63;73.61
73297;BME280;61524;50.938;11.396;2023-06-10T04:20:53;99081.53;;;16.69;73.80
73297;BME280;61524;50.938;11.396;2023-06-10T04:23:19;99075.09;;;16.94;72.83
73297;BME280;61524;50.938;11.396;2023-06-10T04:25:44;99075.50;;;17.07;72.84
73297;BME280;61524;50.938;11.396;2023-06-10T04:28:09;99083.63;;;17.25;72.47
73297;BME280;61524;50.938;11.396;2023-06-10T04:30:35;99081.47;;;17.27;71.74
73297;BME280;61524;50.938;11.396;2023-06-10T04:33:00;99080.84;;;17.92;70.51
73297;BME280;61524;50.938;11.396;2023-06-10T04:35:26;99095.38;;;18.15;69.91
73297;BME280;61524;50.938;11.396;2023-06-10T04:37:54;99096.88;;;18.21;69.82
73297;BME280;61524;50.938;11.396;2023-06-10T04:40:20;99096.88;;;18.54;68.51
73297;BME280;61524;50.938;11.396;2023-06-10T04:42:45;99092.34;;;18.82;67.91
73297;BME280;61524;50.938;11.396;2023-06-10T04:45:11;99094.44;;;19.26;66.33
73297;BME280;61524;50.938;11.396;2023-06-10T04:47:36;99096.72;;;19.47;67.10
73297;BME280;61524;50.938;11.396;2023-06-10T04:50:03;99080.50;;;19.83;65.34
73297;BME280;61524;50.938;11.396;2023-06-10T04:52:29;99095.13;;;20.63;63.47
73297;BME280;61524;50.938;11.396;2023-06-10T04:54:54;99097.22;;;20.43;64.51
73297;BME280;61524;50.938;11.396;2023-06-10T04:57:20;99095.31;;;20.44;64.51
73297;BME280;61524;50.938;11.396;2023-06-10T04:59:47;99101.03;;;20.56;63.78
73297;BME280;61524;50.938;11.396;2023-06-10T05:02:12;99097.09;;;20.71;63.63
73297;BME280;61524;50.938;11.396;2023-06-10T05:04:38;99097.06;;;20.93;63.68
73297;BME280;61524;50.938;11.396;2023-06-10T05:07:04;99098.28;;;21.27;61.93
73297;BME280;61524;50.938;11.396;2023-06-10T05:09:30;99102.34;;;21.56;62.50
73297;BME280;61524;50.938;11.396;2023-06-10T05:11:55;99098.38;;;21.88;62.24
73297;BME280;61524;50.938;11.396;2023-06-10T05:14:21;99091.19;;;21.83;62.50
73297;BME280;61524;50.938;11.396;2023-06-10T05:16:50;99104.47;;;22.37;61.45
73297;BME280;61524;50.938;11.396;2023-06-10T05:19:15;99097.47;;;23.50;56.92
73297;BME280;61524;50.938;11.396;2023-06-10T05:21:44;99098.91;;;22.89;57.60
73297;BME280;61524;50.938;11.396;2023-06-10T05:24:10;99113.94;;;22.31;60.55
73297;BME280;61524;50.938;11.396;2023-06-10T05:26:36;99112.03;;;22.22;61.35
73297;BME280;61524;50.938;11.396;2023-06-10T05:29:06;99105.19;;;22.72;59.83
73297;BME280;61524;50.938;11.396;2023-06-10T05:31:32;99107.16;;;23.39;59.07
73297;BME280;61524;50.938;11.396;2023-06-10T05:33:57;99109.13;;;23.00;58.83
73297;BME280;61524;50.938;11.396;2023-06-10T05:36:23;99118.53;;;23.12;59.24
73297;BME280;61524;50.938;11.396;2023-06-10T05:38:50;99119.56;;;23.28;59.02
73297;BME280;61524;50.938;11.396;2023-06-10T05:41:16;99106.25;;;22.15;61.35
73297;BME280;61524;50.938;11.396;2023-06-10T05:43:41;99119.38;;;23.03;60.10
73297;BME280;61524;50.938;11.396;2023-06-10T05:46:07;99113.09;;;23.41;58.69
73297;BME280;61524;50.938;11.396;2023-06-10T05:48:32;99119.75;;;23.23;59.57
73297;BME280;61524;50.938;11.396;2023-06-10T05:50:58;99113.69;;;23.97;57.87
73297;BME280;61524;50.938;11.396;2023-06-10T05:53:23;99114.09;;;24.08;57.18
73297;BME280;61524;50.938;11.396;2023-06-10T05:55:49;99120.38;;;24.42;56.22
73297;BME280;61524;50.938;11.396;2023-06-10T05:58:14;99121.84;;;22.70;60.03
73297;BME280;61524;50.938;11.396;2023-06-10T06:00:40;99110.50;;;23.45;58.16
73297;BME280;61524;50.938;11.396;2023-06-10T06:03:09;99115.72;;;24.21;56.46
73297;BME280;61524;50.938;11.396;2023-06-10T06:05:36;99121.78;;;23.35;59.09
73297;BME280;61524;50.938;11.396;2023-06-10T06:08:06;99117.63;;;22.99;59.24
73297;BME280;61524;50.938;11.396;2023-06-10T06:10:31;99116.41;;;23.76;58.51
73297;BME280;61524;50.938;11.396;2023-06-10T06:12:57;99119.25;;;24.43;56.59
73297;BME280;61524;50.938;11.396;2023-06-10T06:15:23;99125.00;;;24.29;56.26
73297;BME280;61524;50.938;11.396;2023-06-10T06:17:49;99125.94;;;23.91;56.63
73297;BME280;61524;50.938;11.396;2023-06-10T06:20:14;99124.22;;;23.27;59.11
73297;BME280;61524;50.938;11.396;2023-06-10T06:22:40;99124.16;;;22.51;61.34
73297;BME280;61524;50.938;11.396;2023-06-10T06:25:06;99128.00;;;23.94;57.96
73297;BME280;61524;50.938;11.396;2023-06-10T06:27:31;99126.16;;;23.27;59.54
73297;BME280;61524;50.938;11.396;2023-06-10T06:29:57;99123.91;;;24.42;57.49
73297;BME280;61524;50.938;11.396;2023-06-10T06:32:22;99117.78;;;25.64;53.75
73297;BME280;61524;50.938;11.396;2023-06-10T06:34:50;99128.53;;;25.08;55.29
73297;BME280;61524;50.938;11.396;2023-06-10T06:37:22;99127.66;;;24.38;56.63
73297;BME280;61524;50.938;11.396;2023-06-10T06:39:53;99115.97;;;23.95;57.75
73297;BME280;61524;50.938;11.396;2023-06-10T06:42:19;99127.06;;;24.65;56.55
73297;BME280;61524;50.938;11.396;2023-06-10T06:44:44;99124.25;;;23.57;60.16
73297;BME280;61524;50.938;11.396;2023-06-10T06:47:10;99131.47;;;25.03;56.18
73297;BME280;61524;50.938;11.396;2023-06-10T06:49:36;99116.69;;;26.05;53.75
73297;BME280;61524;50.938;11.396;2023-06-10T06:52:01;99125.81;;;23.88;58.51
73297;BME280;61524;50.938;11.396;2023-06-10T06:54:27;99135.28;;;22.75;60.84
73297;BME280;61524;50.938;11.396;2023-06-10T06:56:52;99135.47;;;22.70;60.49
73297;BME280;61524;50.938;11.396;2023-06-10T06:59:18;99149.84;;;24.15;58.29
73297;BME280;61524;50.938;11.396;2023-06-10T07:01:45;99145.31;;;23.98;58.38
73297;BME280;61524;50.938;11.396;2023-06-10T07:04:10;99145.09;;;24.78;56.95
73297;BME280;61524;50.938;11.396;2023-06-10T07:06:36;99145.16;;;25.88;54.28
73297;BME280;61524;50.938;11.396;2023-06-10T07:09:01;99143.47;;;26.68;52.65
73297;BME280;61524;50.938;11.396;2023-06-10T07:11:27;99153.84;;;25.54;55.16
73297;BME280;61524;50.938;11.396;2023-06-10T07:13:52;99145.41;;;25.10;56.30
73297;BME280;61524;50.938;11.396;2023-06-10T07:16:18;99136.47;;;24.22;58.41
73297;BME280;61524;50.938;11.396;2023-06-10T07:18:46;99136.72;;;23.88;59.15
73297;BME280;61524;50.938;11.396;2023-06-10T07:21:11;99146.63;;;25.12;56.57
73297;BME280;61524;50.938;11.396;2023-06-10T07:23:37;99139.59;;;24.66;57.51
73297;BME280;61524;50.938;11.396;2023-06-10T07:26:02;99139.47;;;25.57;55.56
73297;BME280;61524;50.938;11.396;2023-06-10T07:28:27;99149.84;;;26.56;53.58
73297;BME280;61524;50.938;11.396;2023-06-10T07:30:53;99140.22;;;26.78;52.50
73297;BME280;61524;50.938;11.396;2023-06-10T07:33:18;99142.66;;;25.10;56.73
73297;BME280;61524;50.938;11.396;2023-06-10T07:35:44;99138.19;;;25.66;55.48
73297;BME280;61524;50.938;11.396;2023-06-10T07:38:09;99139.34;;;25.90;55.37
73297;BME280;61524;50.938;11.396;2023-06-10T07:40:35;99142.63;;;25.96;54.71
73297;BME280;61524;50.938;11.396;2023-06-10T07:43:01;99133.97;;;25.81;55.74
73297;BME280;61524;50.938;11.396;2023-06-10T07:45:26;99142.53;;;25.80;55.93
73297;BME280;61524;50.938;11.396;2023-06-10T07:47:52;99135.28;;;26.40;54.30
73297;BME280;61524;50.938;11.396;2023-06-10T07:50:17;99139.31;;;26.58;54.25
73297;BME280;61524;50.938;11.396;2023-06-10T07:52:43;99136.94;;;25.64;55.91
73297;BME280;61524;50.938;11.396;2023-06-10T07:55:08;99136.81;;;26.25;55.52
73297;BME280;61524;50.938;11.396;2023-06-10T07:57:34;99135.81;;;27.53;52.47
73297;BME280;61524;50.938;11.396;2023-06-10T08:00:03;99147.59;;;27.37;53.25
73297;BME280;61524;50.938;11.396;2023-06-10T08:02:29;99140.16;;;26.90;53.53
73297;BME280;61524;50.938;11.396;2023-06-10T08:04:55;99142.16;;;26.62;54.49
73297;BME280;61524;50.938;11.396;2023-06-10T08:07:21;99135.91;;;25.69;56.92
73297;BME280;61524;50.938;11.396;2023-06-10T08:09:47;99140.16;;;25.42;56.46
73297;BME280;61524;50.938;11.396;2023-06-10T08:12:13;99147.38;;;24.88;58.55
73297;BME280;61524;50.938;11.396;2023-06-10T08:14:38;99148.38;;;24.39;60.11
73297;BME280;61524;50.938;11.396;2023-06-10T08:17:04;99139.97;;;24.77;59.05
73297;BME280;61524;50.938;11.396;2023-06-10T08:19:31;99136.91;;;24.45;61.35
73297;BME280;61524;50.938;11.396;2023-06-10T08:21:56;99143.19;;;24.04;61.90
73297;BME280;61524;50.938;11.396;2023-06-10T08:24:22;99130.72;;;24.36;61.97
73297;BME280;61524;50.938;11.396;2023-06-10T08:26:47;99136.13;;;24.45;60.84
73297;BME280;61524;50.938;11.396;2023-06-10T08:29:13;99128.66;;;24.12;61.48
73297;BME280;61524;50.938;11.396;2023-06-10T08:31:41;99145.53;;;24.35;60.75
73297;BME280;61524;50.938;11.396;2023-06-10T08:34:07;99131.69;;;24.31;61.44
73297;BME280;61524;50.938;11.396;2023-06-10T08:36:33;99138.16;;;24.27;61.08
73297;BME280;61524;50.938;11.396;2023-06-10T08:38:58;99138.25;;;24.18;61.94
73297;BME280;61524;50.938;11.396;2023-06-10T08:41:25;99140.56;;;24.95;60.35
73297;BME280;61524;50.938;11.396;2023-06-10T08:44:09;99140.47;;;24.58;61.23
73297;BME280;61524;50.938;11.396;2023-06-10T08:46:36;99139.22;;;24.55;61.25
73297;BME280;61524;50.938;11.396;2023-06-10T08:49:03;99134.31;;;24.49;61.15
73297;BME280;61524;50.938;11.396;2023-06-10T08:51:32;99123.88;;;24.63;61.31
73297;BME280;61524;50.938;11.396;2023-06-10T08:54:08;99133.25;;;23.78;61.78
73297;BME280;61524;50.938;11.396;2023-06-10T08:56:39;99119.69;;;24.90;60.57
73297;BME280;61524;50.938;11.396;2023-06-10T08:59:05;99138.03;;;24.77;60.69
73297;BME280;61524;50.938;11.396;2023-06-10T09:01:30;99149.97;;;24.73;61.57
73297;BME280;61524;50.938;11.396;2023-06-10T09:03:58;99143.06;;;25.00;59.96
73297;BME280;61524;50.938;11.396;2023-06-10T09:06:25;99144.72;;;25.50;59.35
73297;BME280;61524;50.938;11.396;2023-06-10T09:08:50;99152.81;;;25.46;57.32
73297;BME280;61524;50.938;11.396;2023-06-10T09:11:16;99146.16;;;25.72;57.42
73297;BME280;61524;50.938;11.396;2023-06-10T09:13:42;99145.97;;;24.37;60.96
73297;BME280;61524;50.938;11.396;2023-06-10T09:16:07;99146.69;;;24.46;61.78
73297;BME280;61524;50.938;11.396;2023-06-10T09:18:33;99143.25;;;24.16;62.34
73297;BME280;61524;50.938;11.396;2023-06-10T09:20:59;99141.81;;;24.52;61.02
73297;BME280;61524;50.938;11.396;2023-06-10T09:23:25;99125.38;;;24.73;60.41
73297;BME280;61524;50.938;11.396;2023-06-10T09:25:57;99143.19;;;25.03;60.46
73297;BME280;61524;50.938;11.396;2023-06-10T09:28:23;99125.41;;;24.19;61.43
73297;BME280;61524;50.938;11.396;2023-06-10T09:30:49;99131.91;;;24.47;61.83
73297;BME280;61524;50.938;11.396;2023-06-10T09:33:15;99136.53;;;24.68;62.36
73297;BME280;61524;50.938;11.396;2023-06-10T09:35:48;99123.84;;;24.30;62.12
73297;BME280;61524;50.938;11.396;2023-06-10T09:38:19;99131.81;;;24.56;62.94
73297;BME280;61524;50.938;11.396;2023-06-10T09:40:53;99118.25;;;24.47;62.37
73297;BME280;61524;50.938;11.396;2023-06-10T09:43:20;99118.94;;;25.38;61.22
73297;BME280;61524;50.938;11.396;2023-06-10T09:45:49;99127.81;;;24.53;62.22
73297;BME280;61524;50.938;11.396;2023-06-10T09:48:14;99113.28;;;24.61;62.38
73297;BME280;61524;50.938;11.396;2023-06-10T09:50:44;99117.66;;;24.21;62.63
73297;BME280;61524;50.938;11.396;2023-06-10T09:53:10;99118.03;;;24.98;61.70
73297;BME280;61524;50.938;11.396;2023-06-10T09:55:40;99105.13;;;25.59;59.95
73297;BME280;61524;50.938;11.396;2023-06-10T09:58:06;99106.91;;;25.92;59.60
73297;BME280;61524;50.938;11.396;2023-06-10T10:00:33;99100.22;;;25.65;59.47
73297;BME280;61524;50.938;11.396;2023-06-10T10:02:59;99116.78;;;26.09;58.75
73297;BME280;61524;50.938;11.396;2023-06-10T10:05:25;99100.91;;;25.01;61.29
73297;BME280;61524;50.938;11.396;2023-06-10T10:07:51;99097.97;;;25.67;59.31
73297;BME280;61524;50.938;11.396;2023-06-10T10:10:19;99105.28;;;26.03;58.79
73297;BME280;61524;50.938;11.396;2023-06-10T10:12:47;99104.28;;;26.24;58.09
73297;BME280;61524;50.938;11.396;2023-06-10T10:15:12;99097.00;;;25.87;58.29
73297;BME280;61524;50.938;11.396;2023-06-10T10:18:24;99098.94;;;26.71;57.57
73297;BME280;61524;50.938;11.396;2023-06-10T10:20:27;99088.00;;;26.15;56.89
73297;BME280;61524;50.938;11.396;2023-06-10T10:22:57;99093.59;;;26.47;55.85
73297;BME280;61524;50.938;11.396;2023-06-10T10:25:29;99086.03;;;25.35;58.96
73297;BME280;61524;50.938;11.396;2023-06-10T10:28:10;99085.63;;;26.13;58.74
73297;BME280;61524;50.938;11.396;2023-06-10T10:30:47;99067.47;;;26.09;58.05
73297;BME280;61524;50.938;11.396;2023-06-10T10:33:19;99090.31;;;25.73;59.51
73297;BME280;61524;50.938;11.396;2023-06-10T10:35:47;99086.91;;;26.32;58.08
73297;BME280;61524;50.938;11.396;2023-06-10T10:38:13;99087.00;;;25.55;59.76
73297;BME280;61524;50.938;11.396;2023-06-10T10:40:39;99074.00;;;25.76;59.97
73297;BME280;61524;50.938;11.396;2023-06-10T10:43:06;99080.81;;;27.14;57.84
73297;BME280;61524;50.938;11.396;2023-06-10T10:45:34;99084.09;;;25.88;57.61
73297;BME280;61524;50.938;11.396;2023-06-10T10:48:05;99087.06;;;26.23;57.08
73297;BME280;61524;50.938;11.396;2023-06-10T10:50:34;99081.72;;;25.86;58.36
73297;BME280;61524;50.938;11.396;2023-06-10T10:53:01;99086.19;;;26.63;56.45
73297;BME280;61524;50.938;11.396;2023-06-10T10:55:28;99083.63;;;26.54;58.17
73297;BME280;61524;50.938;11.396;2023-06-10T11:00:31;99080.03;;;26.38;57.42
73297;BME280;61524;50.938;11.396;2023-06-10T11:02:59;99073.09;;;26.72;57.50
73297;BME280;61524;50.938;11.396;2023-06-10T11:05:35;99080.44;;;26.68;57.13
73297;BME280;61524;50.938;11.396;2023-06-10T11:08:02;99073.38;;;26.23;57.95
73297;BME280;61524;50.938;11.396;2023-06-10T11:13:05;99064.81;;;26.40;58.25
73297;BME280;61524;50.938;11.396;2023-06-10T11:15:31;99059.47;;;26.16;57.58
73297;BME280;61524;50.938;11.396;2023-06-10T11:18:10;99063.91;;;26.49;57.57
73297;BME280;61524;50.938;11.396;2023-06-10T11:20:52;99058.16;;;27.17;56.84
73297;BME280;61524;50.938;11.396;2023-06-10T11:28:36;99064.25;;;26.63;56.53
73297;BME280;61524;50.938;11.396;2023-06-10T11:31:02;99054.88;;;26.48;55.78
73297;BME280;61524;50.938;11.396;2023-06-10T11:33:27;99059.81;;;27.06;56.81
73297;BME280;61524;50.938;11.396;2023-06-10T11:35:53;99054.75;;;27.39;54.41
73297;BME280;61524;50.938;11.396;2023-06-10T11:38:19;99043.81;;;27.97;53.92
73297;BME280;61524;50.938;11.396;2023-06-10T11:40:51;99058.00;;;27.80;54.43
73297;BME280;61524;50.938;11.396;2023-06-10T11:43:17;99041.09;;;27.78;53.82
73297;BME280;61524;50.938;11.396;2023-06-10T11:45:43;99047.34;;;27.98;54.87
73297;BME280;61524;50.938;11.396;2023-06-10T11:48:09;99061.69;;;27.53;52.83
73297;BME280;61524;50.938;11.396;2023-06-10T11:50:34;99050.47;;;28.16;51.69
73297;BME280;61524;50.938;11.396;2023-06-10T11:53:00;99049.34;;;28.40;52.64
73297;BME280;61524;50.938;11.396;2023-06-10T11:55:42;99048.81;;;27.92;53.28
73297;BME280;61524;50.938;11.396;2023-06-10T11:58:19;99050.41;;;27.38;54.87
73297;BME280;61524;50.938;11.396;2023-06-10T12:00:51;99048.84;;;27.06;55.62
73297;BME280;61524;50.938;11.396;2023-06-10T12:03:24;99049.56;;;27.03;54.92
73297;BME280;61524;50.938;11.396;2023-06-10T12:08:24;99050.72;;;27.17;55.12
73297;BME280;61524;50.938;11.396;2023-06-10T12:10:49;99047.06;;;27.29;54.92
73297;BME280;61524;50.938;11.396;2023-06-10T12:13:15;99054.75;;;27.59;55.50
73297;BME280;61524;50.938;11.396;2023-06-10T12:15:43;99042.59;;;26.58;57.54
73297;BME280;61524;50.938;11.396;2023-06-10T12:18:22;99046.72;;;27.31;56.84
73297;BME280;61524;50.938;11.396;2023-06-10T12:20:49;99053.22;;;26.91;55.66
73297;BME280;61524;50.938;11.396;2023-06-10T12:23:16;99042.72;;;27.28;55.69
73297;BME280;61524;50.938;11.396;2023-06-10T12:25:55;99047.38;;;26.77;57.07
73297;BME280;61524;50.938;11.396;2023-06-10T12:28:25;99040.56;;;26.86;57.37
73297;BME280;61524;50.938;11.396;2023-06-10T12:30:51;99038.72;;;25.87;59.37
73297;BME280;61524;50.938;11.396;2023-06-10T12:33:21;99035.06;;;25.83;59.18
73297;BME280;61524;50.938;11.396;2023-06-10T12:35:51;99029.50;;;25.79;58.95
73297;BME280;61524;50.938;11.396;2023-06-10T12:38:24;99031.56;;;26.70;57.50
73297;BME280;61524;50.938;11.396;2023-06-10T12:40:53;99023.22;;;27.14;56.36
73297;BME280;61524;50.938;11.396;2023-06-10T12:43:24;99023.91;;;27.11;54.87
73297;BME280;61524;50.938;11.396;2023-06-10T12:45:51;99022.41;;;27.68;52.62
73297;BME280;61524;50.938;11.396;2023-06-10T12:48:21;99024.28;;;28.03;51.31
73297;BME280;61524;50.938;11.396;2023-06-10T12:50:54;99008.84;;;27.75;52.29
73297;BME280;61524;50.938;11.396;2023-06-10T12:53:20;99014.19;;;28.07;52.20
73297;BME280;61524;50.938;11.396;2023-06-10T12:55:46;99008.00;;;28.33;52.58
73297;BME280;61524;50.938;11.396;2023-06-10T12:58:12;99010.84;;;27.97;52.66
73297;BME280;61524;50.938;11.396;2023-06-10T13:00:38;99012.22;;;28.07;52.12
73297;BME280;61524;50.938;11.396;2023-06-10T13:03:04;99017.22;;;28.02;48.07
73297;BME280;61524;50.938;11.396;2023-06-10T13:05:34;99008.41;;;27.92;46.67